| time (UTC) | temp C | wind direction | speed KPH | gust KPH | rain 1hr cm | rain 24hr cm | rain mn cm | humidity % | barometer mb |
| 20260503194522 | 25 | 306 | 1.6 | 16.1 | 0.00 | 0.00 | 0.00 | 59 | 1012.0 |
| 20260503193018 | 25 | 314 | 3.2 | 14.5 | 0.00 | 0.00 | 0.00 | 59 | 1012.3 |
| 20260503191512 | 25 | 304 | 4.8 | 12.9 | 0.00 | 0.00 | 0.00 | 60 | 1012.4 |
| 20260503190017 | 24 | 306 | 3.2 | 14.5 | 0.00 | 0.00 | 0.00 | 60 | 1012.5 |
| 20260503184513 | 24 | 301 | 0.0 | 14.5 | 0.00 | 0.00 | 0.00 | 61 | 1012.8 |
| 20260503183004 | 23 | 305 | 0.0 | 16.1 | 0.00 | 0.00 | 0.00 | 65 | 1012.8 |
| 20260503181504 | 23 | 308 | 6.4 | 14.5 | 0.00 | 0.00 | 0.00 | 62 | 1012.9 |
| 20260503180001 | 23 | 308 | 3.2 | 12.9 | 0.00 | 0.00 | 0.00 | 63 | 1013.0 |
| 20260503174602 | 23 | 304 | 3.2 | 12.9 | 0.00 | 0.00 | 0.00 | 63 | 1013.1 |
| 20260503173110 | 23 | 300 | 0.0 | 8.0 | 0.00 | 0.00 | 0.00 | 62 | 1013.1 |
| 20260503171554 | 22 | 302 | 1.6 | 8.0 | 0.00 | 0.00 | 0.00 | 63 | 1013.3 |
| 20260503081545 | 11 | 306 | 0.0 | 0.0 | 0.00 | 0.00 | 0.00 | 90 | 1014.0 |
| 20260503071556 | 11 | 306 | 0.0 | 0.0 | 0.00 | 0.00 | 0.00 | 89 | 1013.9 |
| 20260503054534 | 12 | 306 | 0.0 | 0.0 | 0.00 | 0.00 | 0.00 | 84 | 1013.6 |
| 20260503053029 | 13 | 306 | 0.0 | 0.0 | 0.00 | 0.00 | 0.00 | 83 | 1013.5 |
| 20260503051529 | 13 | 306 | 0.0 | 0.0 | 0.00 | 0.00 | 0.00 | 81 | 1013.6 |
| 20260503050036 | 14 | 306 | 0.0 | 0.0 | 0.00 | 0.00 | 0.00 | 78 | 1013.5 |
| 20260503044528 | 15 | 306 | 0.0 | 0.0 | 0.00 | 0.00 | 0.00 | 76 | 1013.3 |
| 20260503043027 | 15 | 306 | 0.0 | 0.0 | 0.00 | 0.00 | 0.00 | 73 | 1013.1 |
| 20260503041535 | 16 | 306 | 0.0 | 0.0 | 0.00 | 0.00 | 0.00 | 72 | 1013.0 |
| 20260503040024 | 16 | 306 | 0.0 | 0.0 | 0.00 | 0.00 | 0.00 | 72 | 1012.8 |
| 20260503034525 | 17 | 306 | 0.0 | 0.0 | 0.00 | 0.00 | 0.00 | 70 | 1012.6 |
| 20260503033023 | 17 | 306 | 0.0 | 1.6 | 0.00 | 0.00 | 0.00 | 68 | 1012.3 |
| 20260503031523 | 18 | 306 | 1.6 | 8.0 | 0.00 | 0.00 | 0.00 | 65 | 1012.3 |
| 20260503030024 | 18 | 306 | 0.0 | 6.4 | 0.00 | 0.00 | 0.00 | 64 | 1012.1 |
| 20260503024522 | 19 | 307 | 0.0 | 6.4 | 0.00 | 0.00 | 0.00 | 62 | 1012.0 |
| 20260503023022 | 20 | 307 | 1.6 | 9.7 | 0.00 | 0.00 | 0.00 | 61 | 1012.0 |
| 20260503021524 | 21 | 305 | 0.0 | 8.0 | 0.00 | 0.00 | 0.00 | 60 | 1011.8 |
| 20260503020022 | 21 | 306 | 3.2 | 9.7 | 0.00 | 0.00 | 0.00 | 60 | 1012.1 |
| 20260503014519 | 22 | 306 | 1.6 | 12.9 | 0.00 | 0.00 | 0.00 | 58 | 1012.1 |
| 20260503013018 | 23 | 309 | 0.0 | 9.7 | 0.00 | 0.00 | 0.00 | 57 | 1012.2 |
| 20260503011518 | 23 | 310 | 3.2 | 17.7 | 0.00 | 0.00 | 0.00 | 56 | 1012.2 |
| 20260503010019 | 23 | 308 | 3.2 | 9.7 | 0.00 | 0.00 | 0.00 | 57 | 1012.3 |
| 20260503004515 | 23 | 303 | 6.4 | 17.7 | 0.00 | 0.00 | 0.00 | 55 | 1012.4 |
| 20260503003014 | 24 | 306 | 4.8 | 16.1 | 0.00 | 0.00 | 0.00 | 56 | 1012.4 |
| 20260503001511 | 24 | 291 | 6.4 | 17.7 | 0.00 | 0.00 | 0.00 | 57 | 1012.5 |
| 20260503000004 | 23 | 305 | 8.0 | 14.5 | 0.00 | 0.00 | 0.00 | 58 | 1012.6 |
| 20260502234503 | 23 | 315 | 6.4 | 17.7 | 0.00 | 0.00 | 0.00 | 60 | 1012.7 |
| 20260502233100 | 23 | 306 | 8.0 | 17.7 | 0.00 | 0.00 | 0.00 | 59 | 1012.8 |
| 20260502231600 | 23 | 306 | 4.8 | 19.3 | 0.00 | 0.00 | 0.00 | 62 | 1013.1 |
| 20260502230056 | 23 | 293 | 11.3 | 20.9 | 0.00 | 0.00 | 0.00 | 61 | 1013.2 |
| 20260502224553 | 23 | 310 | 6.4 | 17.7 | 0.00 | 0.00 | 0.00 | 61 | 1013.5 |
| 20260502223052 | 23 | 246 | 6.4 | 17.7 | 0.00 | 0.00 | 0.00 | 64 | 1013.6 |
| 20260502221549 | 23 | 298 | 3.2 | 14.5 | 0.00 | 0.00 | 0.00 | 63 | 1013.9 |
| 20260502220045 | 23 | 303 | 6.4 | 14.5 | 0.00 | 0.00 | 0.00 | 63 | 1014.1 |
| 20260502214542 | 22 | 205 | 4.8 | 20.9 | 0.00 | 0.00 | 0.00 | 66 | 1014.2 |
| 20260502213037 | 22 | 302 | 6.4 | 19.3 | 0.00 | 0.00 | 0.00 | 66 | 1014.5 |
| 20260502211534 | 22 | 294 | 6.4 | 11.3 | 0.00 | 0.00 | 0.00 | 63 | 1014.5 |
| 20260502210031 | 22 | 308 | 4.8 | 14.5 | 0.00 | 0.00 | 0.00 | 68 | 1014.6 |
| 20260502204529 | 21 | 296 | 9.7 | 17.7 | 0.00 | 0.00 | 0.00 | 67 | 1014.7 |
| 20260502203028 | 22 | 285 | 4.8 | 14.5 | 0.00 | 0.00 | 0.00 | 68 | 1014.8 |
| 20260502201525 | 21 | 277 | 3.2 | 17.7 | 0.00 | 0.00 | 0.00 | 69 | 1015.0 |
| 20260502200023 | 21 | 305 | 3.2 | 14.5 | 0.00 | 0.00 | 0.00 | 72 | 1015.2 |